JES3051 SABE-SAZS
Flight info
| Callsign | JES3051 |
|---|---|
| Flight time | 2h 27m |
| Altitude | 38000 |
| Route | PAL9 TORUL UT654 ORERA ORERA2Q |
| Aircraft | A320/M-SDE3FGHIRWY/LB1 |
Departure
| Time | 2026-05-08 00:56 |
|---|---|
| Airport | Aeroparque Jorge Newbery (SABE) |
Arrival
| Time | 2026-05-08 03:23 |
|---|---|
| Airport | Teniente Luis Candelaria International Airport (SAZS) |
| Time | Latitude | Longitude | Altitude | Speed | Heading |
|---|---|---|---|---|---|
| 2026-05-08 00:22 | -34.55723 | -58.41403 | 27 ft | 0 kts | 34° |
| 2026-05-08 00:45 | -34.55727 | -58.41407 | 27 ft | 2 kts | 34° |
| 2026-05-08 00:45 | -34.55728 | -58.41407 | 27 ft | 0 kts | 34° |
| 2026-05-08 00:47 | -34.55735 | -58.41412 | 27 ft | 2 kts | 35° |
| 2026-05-08 00:48 | -34.55746 | -58.41426 | 27 ft | 2 kts | 8° |
| 2026-05-08 00:48 | -34.55759 | -58.41423 | 27 ft | 0 kts | 300° |
| 2026-05-08 00:48 | -34.55759 | -58.41424 | 27 ft | 0 kts | 300° |
| 2026-05-08 00:48 | -34.55759 | -58.41423 | 27 ft | 0 kts | 300° |
| 2026-05-08 00:50 | -34.55758 | -58.41425 | 27 ft | 1 kts | 300° |
| 2026-05-08 00:51 | -34.55744 | -58.41457 | 27 ft | 6 kts | 298° |
| 2026-05-08 00:51 | -34.55721 | -58.41514 | 27 ft | 9 kts | 284° |
| 2026-05-08 00:51 | -34.55759 | -58.41575 | 27 ft | 11 kts | 213° |
| 2026-05-08 00:51 | -34.55820 | -58.41549 | 27 ft | 12 kts | 117° |
| 2026-05-08 00:52 | -34.55861 | -58.41449 | 27 ft | 14 kts | 116° |
| 2026-05-08 00:52 | -34.55909 | -58.41336 | 27 ft | 16 kts | 117° |
| 2026-05-08 00:52 | -34.55974 | -58.41216 | 27 ft | 18 kts | 126° |
| 2026-05-08 00:52 | -34.56053 | -58.41087 | 27 ft | 20 kts | 127° |
| 2026-05-08 00:53 | -34.56139 | -58.40949 | 27 ft | 19 kts | 124° |
| 2026-05-08 00:53 | -34.56156 | -58.40848 | 27 ft | 11 kts | 98° |
| 2026-05-08 00:53 | -34.56203 | -58.40763 | 27 ft | 13 kts | 123° |
| 2026-05-08 00:53 | -34.56259 | -58.40663 | 27 ft | 15 kts | 124° |
| 2026-05-08 00:54 | -34.56322 | -58.40547 | 27 ft | 18 kts | 125° |
| 2026-05-08 00:54 | -34.56417 | -58.40440 | 27 ft | 19 kts | 137° |
| 2026-05-08 00:54 | -34.56514 | -58.40359 | 26 ft | 13 kts | 182° |
| 2026-05-08 00:54 | -34.56559 | -58.40435 | 27 ft | 12 kts | 295° |
| 2026-05-08 00:55 | -34.56504 | -58.40533 | 29 ft | 19 kts | 304° |
| 2026-05-08 00:55 | -34.56300 | -58.40901 | 27 ft | 89 kts | 304° |
| 2026-05-08 00:55 | -34.55846 | -58.41722 | 29 ft | 145 kts | 302° |
| 2026-05-08 00:55 | -34.55239 | -58.42824 | 392 ft | 165 kts | 302° |
| 2026-05-08 00:56 | -34.54562 | -58.43992 | 1109 ft | 172 kts | 302° |
| 2026-05-08 00:56 | -34.53699 | -58.45100 | 1563 ft | 194 kts | 314° |
| 2026-05-08 00:56 | -34.52449 | -58.45969 | 1910 ft | 225 kts | 333° |
| 2026-05-08 00:56 | -34.50788 | -58.46305 | 2365 ft | 261 kts | 356° |
| 2026-05-08 00:57 | -34.48950 | -58.45769 | 3110 ft | 283 kts | 23° |
| 2026-05-08 00:57 | -34.47364 | -58.44302 | 4008 ft | 293 kts | 50° |
| 2026-05-08 00:57 | -34.46409 | -58.42159 | 4958 ft | 295 kts | 76° |
| 2026-05-08 00:57 | -34.45949 | -58.39744 | 5970 ft | 295 kts | 79° |
| 2026-05-08 00:58 | -34.45508 | -58.37303 | 6896 ft | 298 kts | 78° |
| 2026-05-08 00:58 | -34.45241 | -58.34809 | 7785 ft | 302 kts | 92° |
| 2026-05-08 00:58 | -34.45702 | -58.32329 | 8649 ft | 306 kts | 115° |
| 2026-05-08 00:58 | -34.46909 | -58.30207 | 9490 ft | 310 kts | 137° |
| 2026-05-08 00:59 | -34.48712 | -58.28776 | 10238 ft | 312 kts | 161° |
| 2026-05-08 00:59 | -34.50830 | -58.28276 | 10987 ft | 311 kts | 184° |
| 2026-05-08 00:59 | -34.52933 | -58.28771 | 11746 ft | 308 kts | 207° |
| 2026-05-08 00:59 | -34.54683 | -58.30135 | 12484 ft | 304 kts | 229° |
| 2026-05-08 01:00 | -34.55924 | -58.32193 | 13104 ft | 307 kts | 249° |
| 2026-05-08 01:00 | -34.56527 | -58.34724 | 13303 ft | 323 kts | 262° |
| 2026-05-08 01:00 | -34.56966 | -58.37452 | 13785 ft | 333 kts | 262° |
| 2026-05-08 01:00 | -34.57417 | -58.40234 | 14399 ft | 338 kts | 262° |
| 2026-05-08 01:01 | -34.57883 | -58.43046 | 15034 ft | 342 kts | 262° |
| 2026-05-08 01:01 | -34.58360 | -58.45887 | 15662 ft | 346 kts | 262° |
| 2026-05-08 01:01 | -34.58846 | -58.48762 | 16291 ft | 349 kts | 261° |
| 2026-05-08 01:01 | -34.59329 | -58.51629 | 16919 ft | 353 kts | 262° |
| 2026-05-08 01:02 | -34.59820 | -58.54564 | 17554 ft | 357 kts | 262° |
| 2026-05-08 01:02 | -34.60317 | -58.57536 | 18157 ft | 361 kts | 262° |
| 2026-05-08 01:02 | -34.60883 | -58.60514 | 18711 ft | 367 kts | 255° |
| 2026-05-08 01:02 | -34.62233 | -58.63206 | 19250 ft | 384 kts | 230° |
| 2026-05-08 01:03 | -34.64467 | -58.65063 | 19765 ft | 401 kts | 206° |
| 2026-05-08 01:03 | -34.67242 | -58.65734 | 20224 ft | 416 kts | 181° |
| 2026-05-08 01:03 | -34.70062 | -58.65066 | 20640 ft | 426 kts | 157° |
| 2026-05-08 01:03 | -34.72620 | -58.63222 | 21028 ft | 431 kts | 143° |
| 2026-05-08 01:04 | -34.75083 | -58.61096 | 21452 ft | 437 kts | 142° |
| 2026-05-08 01:04 | -34.77619 | -58.59016 | 21831 ft | 444 kts | 148° |
| 2026-05-08 01:04 | -34.80436 | -58.57402 | 22215 ft | 451 kts | 165° |
| 2026-05-08 01:04 | -34.83536 | -58.56946 | 22586 ft | 450 kts | 189° |
| 2026-05-08 01:05 | -34.86520 | -58.57855 | 23001 ft | 439 kts | 213° |
| 2026-05-08 01:05 | -34.88909 | -58.59922 | 23391 ft | 419 kts | 236° |
| 2026-05-08 01:05 | -34.90471 | -58.62797 | 23777 ft | 402 kts | 254° |
| 2026-05-08 01:05 | -34.91625 | -58.65899 | 24197 ft | 403 kts | 255° |
| 2026-05-08 01:06 | -34.92773 | -58.69024 | 24623 ft | 406 kts | 255° |
| 2026-05-08 01:06 | -34.93931 | -58.72175 | 25047 ft | 410 kts | 253° |
| 2026-05-08 01:06 | -34.95331 | -58.75252 | 25449 ft | 420 kts | 246° |
| 2026-05-08 01:06 | -34.96976 | -58.78234 | 25851 ft | 428 kts | 242° |
| 2026-05-08 01:07 | -34.98782 | -58.81150 | 26264 ft | 433 kts | 240° |
| 2026-05-08 01:07 | -35.00638 | -58.84000 | 26654 ft | 437 kts | 239° |
| 2026-05-08 01:07 | -35.02535 | -58.86907 | 27063 ft | 439 kts | 239° |
| 2026-05-08 01:07 | -35.04416 | -58.89857 | 27445 ft | 442 kts | 240° |
| 2026-05-08 01:08 | -35.06270 | -58.92853 | 27832 ft | 444 kts | 241° |
| 2026-05-08 01:08 | -35.08107 | -58.95893 | 28242 ft | 446 kts | 242° |
| 2026-05-08 01:08 | -35.09939 | -58.98965 | 28606 ft | 449 kts | 242° |
| 2026-05-08 01:08 | -35.11775 | -59.02064 | 28997 ft | 452 kts | 242° |
| 2026-05-08 01:09 | -35.13626 | -59.05183 | 29408 ft | 455 kts | 242° |
| 2026-05-08 01:09 | -35.15470 | -59.08279 | 29781 ft | 458 kts | 242° |
| 2026-05-08 01:09 | -35.17353 | -59.11431 | 30122 ft | 460 kts | 241° |
| 2026-05-08 01:09 | -35.19247 | -59.14591 | 30473 ft | 462 kts | 240° |
| 2026-05-08 01:10 | -35.21146 | -59.17774 | 30835 ft | 463 kts | 241° |
| 2026-05-08 01:10 | -35.23019 | -59.20984 | 31202 ft | 464 kts | 241° |
| 2026-05-08 01:10 | -35.24866 | -59.24203 | 31704 ft | 461 kts | 241° |
| 2026-05-08 01:10 | -35.26695 | -59.27413 | 32242 ft | 459 kts | 240° |
| 2026-05-08 01:11 | -35.28510 | -59.30606 | 32777 ft | 456 kts | 240° |
| 2026-05-08 01:11 | -35.30297 | -59.33744 | 33305 ft | 454 kts | 240° |
| 2026-05-08 01:11 | -35.32102 | -59.36902 | 33815 ft | 452 kts | 239° |
| 2026-05-08 01:11 | -35.33903 | -59.40049 | 34262 ft | 450 kts | 239° |
| 2026-05-08 01:12 | -35.35694 | -59.43174 | 34687 ft | 447 kts | 239° |
| 2026-05-08 01:12 | -35.37483 | -59.46282 | 35106 ft | 446 kts | 238° |
| 2026-05-08 01:12 | -35.39284 | -59.49366 | 35496 ft | 444 kts | 238° |
| 2026-05-08 01:12 | -35.41087 | -59.52429 | 35876 ft | 442 kts | 238° |
| 2026-05-08 01:13 | -35.42887 | -59.55475 | 36241 ft | 441 kts | 238° |
| 2026-05-08 01:13 | -35.44658 | -59.58476 | 36580 ft | 439 kts | 238° |
| 2026-05-08 01:13 | -35.46441 | -59.61514 | 36917 ft | 438 kts | 238° |
| 2026-05-08 01:13 | -35.48212 | -59.64544 | 37233 ft | 437 kts | 238° |
| 2026-05-08 01:14 | -35.49980 | -59.67577 | 37537 ft | 436 kts | 238° |
| 2026-05-08 01:14 | -35.51741 | -59.70605 | 37675 ft | 436 kts | 238° |
| 2026-05-08 01:14 | -35.53504 | -59.73633 | 37694 ft | 435 kts | 238° |
| 2026-05-08 01:15 | -35.56995 | -59.79635 | 37697 ft | 434 kts | 238° |
| 2026-05-08 01:15 | -35.60496 | -59.85670 | 37698 ft | 433 kts | 238° |
| 2026-05-08 01:16 | -35.63990 | -59.91699 | 37705 ft | 433 kts | 237° |
| 2026-05-08 01:16 | -35.67483 | -59.97726 | 37706 ft | 432 kts | 237° |
| 2026-05-08 01:17 | -35.70939 | -60.03722 | 37720 ft | 433 kts | 237° |
| 2026-05-08 01:17 | -35.74422 | -60.09759 | 37730 ft | 432 kts | 237° |
| 2026-05-08 01:18 | -35.77903 | -60.15795 | 37737 ft | 432 kts | 237° |
| 2026-05-08 01:18 | -35.81375 | -60.21826 | 37744 ft | 431 kts | 237° |
| 2026-05-08 01:19 | -35.84806 | -60.27817 | 37743 ft | 430 kts | 237° |
| 2026-05-08 01:19 | -35.88251 | -60.33846 | 37747 ft | 430 kts | 237° |
| 2026-05-08 01:20 | -35.91695 | -60.39857 | 37748 ft | 429 kts | 237° |
| 2026-05-08 01:20 | -35.95131 | -60.45870 | 37752 ft | 428 kts | 237° |
| 2026-05-08 01:21 | -35.98530 | -60.51835 | 37754 ft | 427 kts | 237° |
| 2026-05-08 01:21 | -36.01935 | -60.57836 | 37758 ft | 426 kts | 237° |
| 2026-05-08 01:22 | -36.05333 | -60.63832 | 37763 ft | 425 kts | 236° |
| 2026-05-08 01:22 | -36.08725 | -60.69818 | 37764 ft | 425 kts | 236° |
| 2026-05-08 01:23 | -36.12114 | -60.75804 | 37766 ft | 425 kts | 236° |
| 2026-05-08 01:23 | -36.15465 | -60.81748 | 37771 ft | 424 kts | 237° |
| 2026-05-08 01:24 | -36.18819 | -60.87745 | 37772 ft | 423 kts | 237° |
| 2026-05-08 01:24 | -36.22168 | -60.93736 | 37773 ft | 423 kts | 236° |
| 2026-05-08 01:25 | -36.25512 | -60.99723 | 37773 ft | 422 kts | 236° |
| 2026-05-08 01:25 | -36.28820 | -61.05673 | 37771 ft | 422 kts | 236° |
| 2026-05-08 01:26 | -36.32151 | -61.11665 | 37776 ft | 422 kts | 236° |
| 2026-05-08 01:26 | -36.35483 | -61.17660 | 37780 ft | 422 kts | 236° |
| 2026-05-08 01:27 | -36.38805 | -61.23657 | 37777 ft | 422 kts | 236° |
| 2026-05-08 01:27 | -36.42099 | -61.29619 | 37779 ft | 422 kts | 236° |
| 2026-05-08 01:28 | -36.45415 | -61.35625 | 37779 ft | 421 kts | 236° |
| 2026-05-08 01:28 | -36.48726 | -61.41627 | 37784 ft | 421 kts | 236° |
| 2026-05-08 01:29 | -36.52022 | -61.47642 | 37783 ft | 421 kts | 236° |
| 2026-05-08 01:29 | -36.55307 | -61.53614 | 37788 ft | 421 kts | 236° |
| 2026-05-08 01:30 | -36.58609 | -61.59629 | 37791 ft | 421 kts | 236° |
| 2026-05-08 01:30 | -36.61903 | -61.65649 | 37794 ft | 421 kts | 236° |
| 2026-05-08 01:31 | -36.65194 | -61.71677 | 37798 ft | 421 kts | 236° |
| 2026-05-08 01:31 | -36.68453 | -61.77667 | 37801 ft | 420 kts | 236° |
| 2026-05-08 01:32 | -36.71728 | -61.83696 | 37801 ft | 420 kts | 236° |
| 2026-05-08 01:32 | -36.74447 | -61.88704 | 37805 ft | 419 kts | 235° |
| 2026-05-08 01:33 | -36.77714 | -61.94725 | 37806 ft | 419 kts | 235° |
| 2026-05-08 01:33 | -36.81503 | -62.01718 | 37806 ft | 418 kts | 236° |
| 2026-05-08 01:34 | -36.84759 | -62.07731 | 37808 ft | 418 kts | 236° |
| 2026-05-08 01:34 | -36.87460 | -62.12737 | 37809 ft | 418 kts | 236° |
| 2026-05-08 01:35 | -36.90699 | -62.18754 | 37813 ft | 417 kts | 236° |
| 2026-05-08 01:35 | -36.94453 | -62.25749 | 37815 ft | 417 kts | 236° |
| 2026-05-08 01:36 | -36.97154 | -62.30794 | 37814 ft | 416 kts | 236° |
| 2026-05-08 01:36 | -37.00892 | -62.37777 | 37817 ft | 415 kts | 236° |
| 2026-05-08 01:37 | -37.03563 | -62.42773 | 37817 ft | 415 kts | 236° |
| 2026-05-08 01:37 | -37.06774 | -62.48780 | 37822 ft | 415 kts | 236° |
| 2026-05-08 01:38 | -37.09980 | -62.54799 | 37825 ft | 415 kts | 236° |
| 2026-05-08 01:38 | -37.13182 | -62.60823 | 37825 ft | 415 kts | 236° |
| 2026-05-08 01:39 | -37.16360 | -62.66805 | 37827 ft | 415 kts | 236° |
| 2026-05-08 01:39 | -37.19557 | -62.72836 | 37830 ft | 415 kts | 236° |
| 2026-05-08 01:40 | -37.22749 | -62.78869 | 37830 ft | 415 kts | 236° |
| 2026-05-08 01:40 | -37.25939 | -62.84913 | 37831 ft | 415 kts | 236° |
| 2026-05-08 01:41 | -37.29111 | -62.90919 | 37835 ft | 415 kts | 236° |
| 2026-05-08 01:41 | -37.32296 | -62.96978 | 37834 ft | 415 kts | 236° |
| 2026-05-08 01:42 | -37.35476 | -63.03038 | 37839 ft | 415 kts | 236° |
| 2026-05-08 01:42 | -37.38665 | -63.09098 | 37843 ft | 415 kts | 236° |
| 2026-05-08 01:43 | -37.41829 | -63.15120 | 37849 ft | 415 kts | 236° |
| 2026-05-08 01:43 | -37.45009 | -63.21185 | 37851 ft | 416 kts | 236° |
| 2026-05-08 01:44 | -37.48190 | -63.27266 | 37852 ft | 416 kts | 236° |
| 2026-05-08 01:44 | -37.51372 | -63.33352 | 37855 ft | 416 kts | 236° |
| 2026-05-08 01:45 | -37.54525 | -63.39399 | 37863 ft | 416 kts | 236° |
| 2026-05-08 01:45 | -37.57699 | -63.45489 | 37865 ft | 415 kts | 236° |
| 2026-05-08 01:46 | -37.60867 | -63.51587 | 37867 ft | 415 kts | 236° |
| 2026-05-08 01:46 | -37.64028 | -63.57684 | 37873 ft | 415 kts | 236° |
| 2026-05-08 01:47 | -37.67163 | -63.63752 | 37874 ft | 415 kts | 236° |
| 2026-05-08 01:47 | -37.70314 | -63.69852 | 37880 ft | 415 kts | 236° |
| 2026-05-08 01:48 | -37.75033 | -63.79011 | 37886 ft | 414 kts | 236° |
| 2026-05-08 01:48 | -37.78172 | -63.85115 | 37890 ft | 414 kts | 236° |
| 2026-05-08 01:49 | -37.81286 | -63.91180 | 37891 ft | 414 kts | 236° |
| 2026-05-08 01:49 | -37.84414 | -63.97279 | 37899 ft | 413 kts | 236° |
| 2026-05-08 01:50 | -37.87534 | -64.03381 | 37899 ft | 413 kts | 236° |
| 2026-05-08 01:50 | -37.90646 | -64.09481 | 37896 ft | 412 kts | 235° |
| 2026-05-08 01:51 | -37.93733 | -64.15532 | 37902 ft | 412 kts | 235° |
| 2026-05-08 01:51 | -37.96833 | -64.21625 | 37903 ft | 411 kts | 235° |
| 2026-05-08 01:52 | -37.99922 | -64.27711 | 37911 ft | 410 kts | 235° |
| 2026-05-08 01:52 | -38.03000 | -64.33802 | 37912 ft | 410 kts | 235° |
| 2026-05-08 01:53 | -38.06050 | -64.39847 | 37914 ft | 409 kts | 235° |
| 2026-05-08 01:53 | -38.09117 | -64.45928 | 37915 ft | 409 kts | 235° |
| 2026-05-08 01:54 | -38.12183 | -64.52005 | 37920 ft | 408 kts | 235° |
| 2026-05-08 01:54 | -38.15240 | -64.58081 | 37920 ft | 408 kts | 235° |
| 2026-05-08 01:55 | -38.18259 | -64.64126 | 37925 ft | 407 kts | 235° |
| 2026-05-08 01:55 | -38.21299 | -64.70198 | 37929 ft | 407 kts | 235° |
| 2026-05-08 01:56 | -38.24335 | -64.76266 | 37932 ft | 406 kts | 235° |
| 2026-05-08 01:56 | -38.27356 | -64.82343 | 37935 ft | 406 kts | 235° |
| 2026-05-08 01:57 | -38.30349 | -64.88375 | 37939 ft | 405 kts | 235° |
| 2026-05-08 01:57 | -38.33363 | -64.94441 | 37941 ft | 405 kts | 235° |
| 2026-05-08 01:58 | -38.36369 | -65.00507 | 37947 ft | 404 kts | 235° |
| 2026-05-08 01:58 | -38.39363 | -65.06570 | 37950 ft | 404 kts | 235° |
| 2026-05-08 01:59 | -38.42345 | -65.12633 | 37952 ft | 403 kts | 235° |
| 2026-05-08 01:59 | -38.45306 | -65.18653 | 37953 ft | 403 kts | 235° |
| 2026-05-08 02:00 | -38.48285 | -65.24714 | 37959 ft | 403 kts | 235° |
| 2026-05-08 02:00 | -38.51263 | -65.30769 | 37961 ft | 402 kts | 235° |
| 2026-05-08 02:01 | -38.54232 | -65.36824 | 37965 ft | 402 kts | 235° |
| 2026-05-08 02:01 | -38.57170 | -65.42842 | 37962 ft | 402 kts | 235° |
| 2026-05-08 02:02 | -38.60127 | -65.48900 | 37972 ft | 401 kts | 235° |
| 2026-05-08 02:02 | -38.63074 | -65.54958 | 37974 ft | 401 kts | 235° |
| 2026-05-08 02:03 | -38.66020 | -65.61012 | 37973 ft | 401 kts | 235° |
| 2026-05-08 02:03 | -38.68941 | -65.67029 | 37977 ft | 400 kts | 235° |
| 2026-05-08 02:04 | -38.71870 | -65.73076 | 37985 ft | 400 kts | 235° |
| 2026-05-08 02:04 | -38.74793 | -65.79131 | 37984 ft | 399 kts | 235° |
| 2026-05-08 02:05 | -38.77710 | -65.85179 | 37986 ft | 399 kts | 235° |
| 2026-05-08 02:05 | -38.80602 | -65.91190 | 37990 ft | 399 kts | 235° |
| 2026-05-08 02:06 | -38.83506 | -65.97242 | 37990 ft | 398 kts | 235° |
| 2026-05-08 02:06 | -38.86413 | -66.03288 | 37993 ft | 398 kts | 235° |
| 2026-05-08 02:07 | -38.89311 | -66.09341 | 37999 ft | 398 kts | 235° |
| 2026-05-08 02:07 | -38.92180 | -66.15350 | 38004 ft | 397 kts | 236° |
| 2026-05-08 02:08 | -38.95058 | -66.21411 | 38006 ft | 397 kts | 236° |
| 2026-05-08 02:08 | -38.97931 | -66.27472 | 38006 ft | 397 kts | 236° |
| 2026-05-08 02:09 | -39.00799 | -66.33532 | 38012 ft | 397 kts | 236° |
| 2026-05-08 02:09 | -39.03646 | -66.39545 | 38014 ft | 396 kts | 236° |
| 2026-05-08 02:10 | -39.06506 | -66.45597 | 38016 ft | 396 kts | 236° |
| 2026-05-08 02:10 | -39.09357 | -66.51659 | 38015 ft | 395 kts | 236° |
| 2026-05-08 02:11 | -39.12205 | -66.57707 | 38021 ft | 395 kts | 236° |
| 2026-05-08 02:11 | -39.15045 | -66.63758 | 38026 ft | 394 kts | 236° |
| 2026-05-08 02:12 | -39.17850 | -66.69770 | 38026 ft | 394 kts | 236° |
| 2026-05-08 02:12 | -39.20673 | -66.75820 | 38032 ft | 393 kts | 236° |
| 2026-05-08 02:13 | -39.23497 | -66.81862 | 38028 ft | 393 kts | 236° |
| 2026-05-08 02:13 | -39.26294 | -66.87868 | 38025 ft | 393 kts | 236° |
| 2026-05-08 02:14 | -39.29107 | -66.93919 | 38023 ft | 393 kts | 236° |
| 2026-05-08 02:14 | -39.31921 | -66.99983 | 38020 ft | 394 kts | 236° |
| 2026-05-08 02:15 | -39.34733 | -67.06059 | 38018 ft | 394 kts | 236° |
| 2026-05-08 02:15 | -39.37529 | -67.12115 | 38021 ft | 395 kts | 236° |
| 2026-05-08 02:16 | -39.40342 | -67.18223 | 38025 ft | 396 kts | 236° |
| 2026-05-08 02:16 | -39.43161 | -67.24335 | 38028 ft | 396 kts | 236° |
| 2026-05-08 02:17 | -39.45975 | -67.30451 | 38038 ft | 396 kts | 236° |
| 2026-05-08 02:17 | -39.48762 | -67.36542 | 38046 ft | 396 kts | 236° |
| 2026-05-08 02:18 | -39.51557 | -67.42669 | 38050 ft | 395 kts | 236° |
| 2026-05-08 02:18 | -39.54355 | -67.48789 | 38058 ft | 395 kts | 236° |
| 2026-05-08 02:19 | -39.57149 | -67.54906 | 38062 ft | 394 kts | 236° |
| 2026-05-08 02:19 | -39.59906 | -67.60974 | 38066 ft | 393 kts | 236° |
| 2026-05-08 02:20 | -39.62677 | -67.67074 | 38072 ft | 392 kts | 236° |
| 2026-05-08 02:20 | -39.65432 | -67.73155 | 38076 ft | 391 kts | 236° |
| 2026-05-08 02:21 | -39.68177 | -67.79228 | 38083 ft | 389 kts | 236° |
| 2026-05-08 02:21 | -39.70889 | -67.85242 | 38082 ft | 388 kts | 236° |
| 2026-05-08 02:22 | -39.73610 | -67.91282 | 38082 ft | 387 kts | 236° |
| 2026-05-08 02:22 | -39.76322 | -67.97315 | 38087 ft | 386 kts | 236° |
| 2026-05-08 02:23 | -39.79027 | -68.03344 | 38086 ft | 386 kts | 236° |
| 2026-05-08 02:23 | -39.81726 | -68.09313 | 38090 ft | 385 kts | 234° |
| 2026-05-08 02:24 | -39.84643 | -68.15133 | 38090 ft | 384 kts | 232° |
| 2026-05-08 02:24 | -39.87646 | -68.20871 | 38094 ft | 383 kts | 232° |
| 2026-05-08 02:25 | -39.90621 | -68.26634 | 38099 ft | 383 kts | 233° |
| 2026-05-08 02:25 | -39.93542 | -68.32391 | 38104 ft | 383 kts | 233° |
| 2026-05-08 02:26 | -39.96466 | -68.38197 | 38114 ft | 383 kts | 233° |
| 2026-05-08 02:26 | -39.99385 | -68.44007 | 38120 ft | 383 kts | 233° |
| 2026-05-08 02:27 | -40.02306 | -68.49811 | 38122 ft | 382 kts | 233° |
| 2026-05-08 02:27 | -40.05199 | -68.55572 | 38122 ft | 382 kts | 233° |
| 2026-05-08 02:28 | -40.08108 | -68.61374 | 38123 ft | 382 kts | 233° |
| 2026-05-08 02:28 | -40.11009 | -68.67176 | 38127 ft | 381 kts | 233° |
| 2026-05-08 02:29 | -40.13912 | -68.72969 | 38128 ft | 381 kts | 233° |
| 2026-05-08 02:29 | -40.15042 | -68.76069 | 38109 ft | 380 kts | 252° |
| 2026-05-08 02:29 | -40.15147 | -68.79481 | 38115 ft | 386 kts | 271° |
| 2026-05-08 02:30 | -40.14331 | -68.82854 | 38116 ft | 397 kts | 288° |
| 2026-05-08 02:30 | -40.12733 | -68.85875 | 38117 ft | 416 kts | 305° |
| 2026-05-08 02:30 | -40.10365 | -68.88193 | 38118 ft | 439 kts | 327° |
| 2026-05-08 02:30 | -40.07375 | -68.89331 | 38119 ft | 460 kts | 350° |
| 2026-05-08 02:31 | -40.04141 | -68.89030 | 38115 ft | 474 kts | 13° |
| 2026-05-08 02:31 | -40.01117 | -68.87280 | 38122 ft | 479 kts | 36° |
| 2026-05-08 02:31 | -39.98679 | -68.84358 | 38121 ft | 477 kts | 54° |
| 2026-05-08 02:31 | -39.96789 | -68.80898 | 38119 ft | 473 kts | 64° |
| 2026-05-08 02:32 | -39.93757 | -68.73326 | 38119 ft | 470 kts | 71° |
| 2026-05-08 02:32 | -39.92834 | -68.69339 | 38107 ft | 452 kts | 91° |
| 2026-05-08 02:32 | -39.92837 | -68.65348 | 38104 ft | 432 kts | 109° |
| 2026-05-08 02:33 | -39.93688 | -68.61721 | 38099 ft | 408 kts | 129° |
| 2026-05-08 02:33 | -39.95313 | -68.58862 | 38090 ft | 381 kts | 148° |
| 2026-05-08 02:33 | -39.97447 | -68.57008 | 38088 ft | 361 kts | 166° |
| 2026-05-08 02:33 | -39.99773 | -68.56155 | 38085 ft | 347 kts | 180° |
| 2026-05-08 02:34 | -40.02145 | -68.56188 | 38080 ft | 338 kts | 194° |
| 2026-05-08 02:34 | -40.04378 | -68.57051 | 38078 ft | 334 kts | 207° |
| 2026-05-08 02:34 | -40.06329 | -68.58680 | 38079 ft | 334 kts | 221° |
| 2026-05-08 02:34 | -40.07902 | -68.60928 | 38083 ft | 338 kts | 229° |
| 2026-05-08 02:35 | -40.10605 | -68.66002 | 38083 ft | 342 kts | 233° |
| 2026-05-08 02:35 | -40.13150 | -68.71278 | 38085 ft | 344 kts | 233° |
| 2026-05-08 02:36 | -40.14320 | -68.74022 | 38086 ft | 350 kts | 244° |
| 2026-05-08 02:36 | -40.14796 | -68.77134 | 38084 ft | 364 kts | 263° |
| 2026-05-08 02:36 | -40.14366 | -68.80458 | 38087 ft | 384 kts | 283° |
| 2026-05-08 02:36 | -40.12921 | -68.83500 | 38084 ft | 409 kts | 306° |
| 2026-05-08 02:37 | -40.10545 | -68.85713 | 38099 ft | 435 kts | 329° |
| 2026-05-08 02:37 | -40.07534 | -68.86698 | 38125 ft | 459 kts | 352° |
| 2026-05-08 02:37 | -40.04321 | -68.86238 | 38120 ft | 473 kts | 16° |
| 2026-05-08 02:37 | -40.01363 | -68.84344 | 38121 ft | 477 kts | 39° |
| 2026-05-08 02:38 | -39.99077 | -68.81271 | 38119 ft | 471 kts | 62° |
| 2026-05-08 02:38 | -39.97654 | -68.77543 | 38126 ft | 463 kts | 75° |
| 2026-05-08 02:38 | -39.95755 | -68.69608 | 38108 ft | 446 kts | 97° |
| 2026-05-08 02:39 | -39.96090 | -68.65721 | 38119 ft | 423 kts | 117° |
| 2026-05-08 02:39 | -39.97221 | -68.62297 | 38114 ft | 402 kts | 133° |
| 2026-05-08 02:39 | -39.99011 | -68.59668 | 38105 ft | 376 kts | 154° |
| 2026-05-08 02:39 | -40.01273 | -68.58250 | 38095 ft | 352 kts | 175° |
| 2026-05-08 02:40 | -40.03645 | -68.58098 | 38089 ft | 338 kts | 194° |
| 2026-05-08 02:40 | -40.05861 | -68.59039 | 38110 ft | 336 kts | 210° |
| 2026-05-08 02:40 | -40.07695 | -68.60862 | 38110 ft | 340 kts | 226° |
| 2026-05-08 02:40 | -40.09163 | -68.63301 | 38116 ft | 344 kts | 231° |
| 2026-05-08 02:41 | -40.11830 | -68.68516 | 38110 ft | 346 kts | 233° |
| 2026-05-08 02:41 | -40.14299 | -68.73912 | 38107 ft | 350 kts | 244° |
| 2026-05-08 02:42 | -40.14803 | -68.77073 | 38116 ft | 365 kts | 262° |
| 2026-05-08 02:42 | -40.14405 | -68.80412 | 38114 ft | 385 kts | 282° |
| 2026-05-08 02:42 | -40.13018 | -68.83450 | 38104 ft | 409 kts | 304° |
| 2026-05-08 02:42 | -40.10681 | -68.85728 | 38094 ft | 434 kts | 328° |
| 2026-05-08 02:43 | -40.07710 | -68.86774 | 38121 ft | 457 kts | 352° |
| 2026-05-08 02:43 | -40.04501 | -68.86386 | 38115 ft | 472 kts | 15° |
| 2026-05-08 02:43 | -40.01530 | -68.84556 | 38122 ft | 476 kts | 38° |
| 2026-05-08 02:43 | -39.99211 | -68.81526 | 38119 ft | 470 kts | 62° |
| 2026-05-08 02:44 | -39.97727 | -68.77783 | 38122 ft | 463 kts | 75° |
| 2026-05-08 02:44 | -39.96544 | -68.73881 | 38115 ft | 464 kts | 75° |
| 2026-05-08 02:44 | -39.95710 | -68.69892 | 38105 ft | 447 kts | 95° |
| 2026-05-08 02:44 | -39.95932 | -68.65977 | 38118 ft | 425 kts | 114° |
| 2026-05-08 02:45 | -39.96949 | -68.62526 | 38112 ft | 405 kts | 131° |
| 2026-05-08 02:45 | -39.98671 | -68.59799 | 38109 ft | 378 kts | 152° |
| 2026-05-08 02:45 | -40.00900 | -68.58252 | 38096 ft | 354 kts | 173° |
| 2026-05-08 02:45 | -40.03280 | -68.57965 | 38090 ft | 338 kts | 192° |
| 2026-05-08 02:46 | -40.05520 | -68.58778 | 38111 ft | 336 kts | 208° |
| 2026-05-08 02:46 | -40.07435 | -68.60513 | 38110 ft | 339 kts | 224° |
| 2026-05-08 02:46 | -40.10307 | -68.65474 | 38114 ft | 345 kts | 232° |
| 2026-05-08 02:47 | -40.12883 | -68.70720 | 38112 ft | 346 kts | 233° |
| 2026-05-08 02:47 | -40.14778 | -68.76506 | 38120 ft | 361 kts | 258° |
| 2026-05-08 02:48 | -40.14552 | -68.79846 | 38115 ft | 381 kts | 278° |
| 2026-05-08 02:48 | -40.13315 | -68.83004 | 38109 ft | 406 kts | 301° |
| 2026-05-08 02:48 | -40.11105 | -68.85436 | 38097 ft | 430 kts | 324° |
| 2026-05-08 02:48 | -40.08210 | -68.86688 | 38117 ft | 453 kts | 348° |
| 2026-05-08 02:49 | -40.05017 | -68.86526 | 38123 ft | 470 kts | 11° |
| 2026-05-08 02:49 | -40.02015 | -68.84934 | 38124 ft | 475 kts | 34° |
| 2026-05-08 02:49 | -39.99572 | -68.82082 | 38116 ft | 471 kts | 58° |
| 2026-05-08 02:49 | -39.97998 | -68.78507 | 38124 ft | 463 kts | 73° |
| 2026-05-08 02:50 | -39.95786 | -68.70608 | 38113 ft | 464 kts | 86° |
| 2026-05-08 02:50 | -39.95526 | -68.66471 | 38120 ft | 455 kts | 102° |
| 2026-05-08 02:50 | -39.96067 | -68.62470 | 38123 ft | 444 kts | 117° |
| 2026-05-08 02:51 | -39.97325 | -68.58856 | 38123 ft | 433 kts | 131° |
| 2026-05-08 02:51 | -39.99164 | -68.55828 | 38127 ft | 420 kts | 145° |
| 2026-05-08 02:51 | -40.01398 | -68.53553 | 38130 ft | 408 kts | 158° |
| 2026-05-08 02:51 | -40.03930 | -68.52028 | 38132 ft | 397 kts | 169° |
| 2026-05-08 02:52 | -40.06595 | -68.51289 | 38134 ft | 388 kts | 180° |
| 2026-05-08 02:52 | -40.09266 | -68.51329 | 38137 ft | 382 kts | 192° |
| 2026-05-08 02:52 | -40.14200 | -68.53594 | 38142 ft | 377 kts | 212° |
| 2026-05-08 02:53 | -40.16275 | -68.55680 | 38140 ft | 378 kts | 223° |
| 2026-05-08 02:53 | -40.17972 | -68.58315 | 38143 ft | 382 kts | 233° |
| 2026-05-08 02:53 | -40.19198 | -68.61367 | 38141 ft | 388 kts | 244° |
| 2026-05-08 02:53 | -40.20163 | -68.64667 | 38142 ft | 389 kts | 244° |
| 2026-05-08 02:54 | -40.22102 | -68.71276 | 38144 ft | 389 kts | 244° |
| 2026-05-08 02:54 | -40.24036 | -68.77829 | 38142 ft | 388 kts | 244° |
| 2026-05-08 02:55 | -40.26915 | -68.87687 | 38145 ft | 388 kts | 244° |
| 2026-05-08 02:56 | -40.28837 | -68.94279 | 38144 ft | 387 kts | 244° |
| 2026-05-08 02:56 | -40.30770 | -69.00860 | 38141 ft | 388 kts | 243° |
| 2026-05-08 02:57 | -40.32693 | -69.07467 | 38134 ft | 388 kts | 244° |
| 2026-05-08 02:57 | -40.34605 | -69.14078 | 38127 ft | 388 kts | 242° |
| 2026-05-08 02:57 | -40.35770 | -69.17178 | 37309 ft | 382 kts | 234° |
| 2026-05-08 02:58 | -40.37172 | -69.20043 | 36220 ft | 384 kts | 233° |
| 2026-05-08 02:58 | -40.38659 | -69.23025 | 35330 ft | 382 kts | 233° |
| 2026-05-08 02:58 | -40.40071 | -69.25862 | 35120 ft | 364 kts | 233° |
| 2026-05-08 02:58 | -40.41448 | -69.28636 | 34685 ft | 362 kts | 233° |
| 2026-05-08 02:59 | -40.42817 | -69.31404 | 34218 ft | 361 kts | 234° |
| 2026-05-08 02:59 | -40.44181 | -69.34173 | 33690 ft | 361 kts | 234° |
| 2026-05-08 02:59 | -40.45537 | -69.36937 | 33221 ft | 359 kts | 234° |
| 2026-05-08 02:59 | -40.46863 | -69.39647 | 32746 ft | 357 kts | 234° |
| 2026-05-08 03:00 | -40.48200 | -69.42384 | 32286 ft | 355 kts | 234° |
| 2026-05-08 03:00 | -40.49529 | -69.45104 | 31831 ft | 353 kts | 234° |
| 2026-05-08 03:00 | -40.50852 | -69.47816 | 31378 ft | 352 kts | 234° |
| 2026-05-08 03:00 | -40.52170 | -69.50519 | 30942 ft | 351 kts | 234° |
| 2026-05-08 03:01 | -40.53484 | -69.53212 | 30505 ft | 349 kts | 234° |
| 2026-05-08 03:01 | -40.54793 | -69.55898 | 30037 ft | 348 kts | 234° |
| 2026-05-08 03:01 | -40.56075 | -69.58532 | 29611 ft | 345 kts | 234° |
| 2026-05-08 03:01 | -40.57359 | -69.61176 | 29198 ft | 342 kts | 234° |
| 2026-05-08 03:02 | -40.58628 | -69.63796 | 28809 ft | 338 kts | 234° |
| 2026-05-08 03:02 | -40.59888 | -69.66399 | 28405 ft | 335 kts | 233° |
| 2026-05-08 03:02 | -40.61134 | -69.68977 | 28015 ft | 332 kts | 233° |
| 2026-05-08 03:02 | -40.62369 | -69.71533 | 27626 ft | 329 kts | 233° |
| 2026-05-08 03:03 | -40.63591 | -69.74063 | 27235 ft | 326 kts | 233° |
| 2026-05-08 03:03 | -40.64800 | -69.76570 | 26839 ft | 323 kts | 233° |
| 2026-05-08 03:03 | -40.65984 | -69.79027 | 26447 ft | 321 kts | 233° |
| 2026-05-08 03:03 | -40.67174 | -69.81493 | 26042 ft | 318 kts | 233° |
| 2026-05-08 03:04 | -40.68359 | -69.83946 | 25633 ft | 316 kts | 233° |
| 2026-05-08 03:04 | -40.69533 | -69.86379 | 25219 ft | 314 kts | 233° |
| 2026-05-08 03:04 | -40.70702 | -69.88801 | 24801 ft | 312 kts | 233° |
| 2026-05-08 03:04 | -40.71866 | -69.91210 | 24379 ft | 311 kts | 233° |
| 2026-05-08 03:05 | -40.73025 | -69.93612 | 23943 ft | 309 kts | 233° |
| 2026-05-08 03:05 | -40.74173 | -69.96000 | 23505 ft | 308 kts | 233° |
| 2026-05-08 03:05 | -40.75314 | -69.98375 | 23062 ft | 305 kts | 233° |
| 2026-05-08 03:05 | -40.76430 | -70.00705 | 22650 ft | 302 kts | 233° |
| 2026-05-08 03:06 | -40.77545 | -70.03041 | 22241 ft | 299 kts | 233° |
| 2026-05-08 03:06 | -40.78649 | -70.05349 | 21830 ft | 296 kts | 233° |
| 2026-05-08 03:06 | -40.79741 | -70.07631 | 21431 ft | 293 kts | 233° |
| 2026-05-08 03:06 | -40.80824 | -70.09895 | 21036 ft | 291 kts | 233° |
| 2026-05-08 03:07 | -40.81900 | -70.12140 | 20627 ft | 289 kts | 233° |
| 2026-05-08 03:07 | -40.82967 | -70.14373 | 20243 ft | 287 kts | 233° |
| 2026-05-08 03:07 | -40.84027 | -70.16598 | 19851 ft | 285 kts | 233° |
| 2026-05-08 03:07 | -40.85069 | -70.18784 | 19474 ft | 285 kts | 233° |
| 2026-05-08 03:08 | -40.86117 | -70.20990 | 19078 ft | 284 kts | 233° |
| 2026-05-08 03:08 | -40.87165 | -70.23199 | 18693 ft | 283 kts | 233° |
| 2026-05-08 03:08 | -40.88212 | -70.25399 | 18290 ft | 283 kts | 233° |
| 2026-05-08 03:08 | -40.89257 | -70.27593 | 17874 ft | 281 kts | 233° |
| 2026-05-08 03:09 | -40.90289 | -70.29762 | 17474 ft | 278 kts | 233° |
| 2026-05-08 03:09 | -40.91311 | -70.31911 | 17118 ft | 274 kts | 233° |
| 2026-05-08 03:09 | -40.92321 | -70.34034 | 16747 ft | 272 kts | 233° |
| 2026-05-08 03:09 | -40.93321 | -70.36140 | 16370 ft | 269 kts | 234° |
| 2026-05-08 03:10 | -40.94297 | -70.38205 | 16025 ft | 268 kts | 234° |
| 2026-05-08 03:10 | -40.95285 | -70.40301 | 15663 ft | 267 kts | 234° |
| 2026-05-08 03:10 | -40.96268 | -70.42382 | 15294 ft | 266 kts | 234° |
| 2026-05-08 03:10 | -40.97252 | -70.44453 | 14939 ft | 265 kts | 233° |
| 2026-05-08 03:11 | -40.98381 | -70.46352 | 14590 ft | 262 kts | 228° |
| 2026-05-08 03:11 | -40.99537 | -70.48211 | 14231 ft | 261 kts | 229° |
| 2026-05-08 03:11 | -41.00682 | -70.50069 | 13874 ft | 260 kts | 229° |
| 2026-05-08 03:11 | -41.01826 | -70.51922 | 13488 ft | 259 kts | 229° |
| 2026-05-08 03:12 | -41.02946 | -70.53734 | 13131 ft | 256 kts | 228° |
| 2026-05-08 03:12 | -41.04069 | -70.55556 | 12781 ft | 254 kts | 228° |
| 2026-05-08 03:12 | -41.05180 | -70.57359 | 12447 ft | 252 kts | 228° |
| 2026-05-08 03:12 | -41.06287 | -70.59154 | 12109 ft | 251 kts | 228° |
| 2026-05-08 03:13 | -41.07388 | -70.60943 | 11772 ft | 250 kts | 228° |
| 2026-05-08 03:13 | -41.08484 | -70.62728 | 11429 ft | 250 kts | 228° |
| 2026-05-08 03:13 | -41.09584 | -70.64515 | 11094 ft | 250 kts | 228° |
| 2026-05-08 03:13 | -41.10684 | -70.66303 | 10751 ft | 250 kts | 228° |
| 2026-05-08 03:14 | -41.11783 | -70.68092 | 10417 ft | 250 kts | 228° |
| 2026-05-08 03:14 | -41.12758 | -70.69681 | 10110 ft | 250 kts | 228° |
| 2026-05-08 03:14 | -41.13842 | -70.71446 | 9757 ft | 250 kts | 228° |
| 2026-05-08 03:14 | -41.14939 | -70.73233 | 9401 ft | 249 kts | 228° |
| 2026-05-08 03:15 | -41.16014 | -70.74988 | 9109 ft | 238 kts | 228° |
| 2026-05-08 03:15 | -41.17014 | -70.76627 | 8950 ft | 220 kts | 228° |
| 2026-05-08 03:15 | -41.17965 | -70.78182 | 8718 ft | 215 kts | 228° |
| 2026-05-08 03:15 | -41.18900 | -70.79710 | 8596 ft | 213 kts | 229° |
| 2026-05-08 03:16 | -41.19835 | -70.81237 | 8377 ft | 215 kts | 229° |
| 2026-05-08 03:16 | -41.20790 | -70.82792 | 8019 ft | 221 kts | 229° |
| 2026-05-08 03:16 | -41.21786 | -70.84416 | 7473 ft | 233 kts | 230° |
| 2026-05-08 03:16 | -41.22796 | -70.86073 | 7204 ft | 224 kts | 231° |
| 2026-05-08 03:17 | -41.23506 | -70.87817 | 7059 ft | 206 kts | 250° |
| 2026-05-08 03:17 | -41.23725 | -70.89640 | 6936 ft | 198 kts | 266° |
| 2026-05-08 03:17 | -41.23513 | -70.91436 | 6682 ft | 193 kts | 282° |
| 2026-05-08 03:17 | -41.23005 | -70.92984 | 6455 ft | 173 kts | 288° |
| 2026-05-08 03:18 | -41.22526 | -70.94372 | 6217 ft | 159 kts | 288° |
| 2026-05-08 03:18 | -41.22084 | -70.95652 | 6006 ft | 146 kts | 288° |
| 2026-05-08 03:18 | -41.21670 | -70.96854 | 5810 ft | 141 kts | 289° |
| 2026-05-08 03:18 | -41.21271 | -70.98015 | 5625 ft | 139 kts | 290° |
| 2026-05-08 03:19 | -41.20881 | -70.99142 | 5458 ft | 132 kts | 290° |
| 2026-05-08 03:19 | -41.20500 | -71.00245 | 5265 ft | 131 kts | 290° |
| 2026-05-08 03:19 | -41.20122 | -71.01340 | 5086 ft | 130 kts | 291° |
| 2026-05-08 03:19 | -41.19745 | -71.02429 | 4920 ft | 129 kts | 292° |
| 2026-05-08 03:20 | -41.19370 | -71.03511 | 4721 ft | 129 kts | 292° |
| 2026-05-08 03:20 | -41.18995 | -71.04594 | 4513 ft | 129 kts | 292° |
| 2026-05-08 03:20 | -41.18621 | -71.05674 | 4308 ft | 128 kts | 294° |
| 2026-05-08 03:20 | -41.18247 | -71.06753 | 4113 ft | 128 kts | 294° |
| 2026-05-08 03:21 | -41.17880 | -71.07807 | 3910 ft | 127 kts | 295° |
| 2026-05-08 03:21 | -41.17500 | -71.08870 | 3706 ft | 127 kts | 295° |
| 2026-05-08 03:21 | -41.17119 | -71.09921 | 3522 ft | 126 kts | 295° |
| 2026-05-08 03:21 | -41.16764 | -71.10978 | 3366 ft | 126 kts | 293° |
| 2026-05-08 03:22 | -41.16414 | -71.12037 | 3218 ft | 125 kts | 294° |
| 2026-05-08 03:22 | -41.16058 | -71.13061 | 3041 ft | 121 kts | 294° |
| 2026-05-08 03:22 | -41.15711 | -71.14072 | 2853 ft | 117 kts | 295° |
| 2026-05-08 03:22 | -41.15376 | -71.15020 | 2755 ft | 104 kts | 296° |
| 2026-05-08 03:23 | -41.15134 | -71.15707 | 2751 ft | 58 kts | 294° |
| 2026-05-08 03:23 | -41.15035 | -71.15994 | 2756 ft | 20 kts | 294° |
| 2026-05-08 03:23 | -41.14975 | -71.16160 | 2756 ft | 21 kts | 295° |
| 2026-05-08 03:23 | -41.14909 | -71.16324 | 2754 ft | 13 kts | 324° |
| 2026-05-08 03:24 | -41.14808 | -71.16288 | 2751 ft | 18 kts | 26° |
| 2026-05-08 03:24 | -41.14745 | -71.16208 | 2749 ft | 12 kts | 84° |
| 2026-05-08 03:24 | -41.14723 | -71.16128 | 2749 ft | 6 kts | 68° |
| 2026-05-08 03:24 | -41.14716 | -71.16106 | 2749 ft | 0 kts | 66° |